Time;durP1;ratioP1;P1;durP2;ratioP2;P2;SDS_P1;SDS_P2;PMS_P1;PMS_P2;Temp;Humidity;BMP_temperature;BMP_pressure;BME280_temperature;BME280_humidity;BME280_pressure;Samples;Min_cycle;Max_cycle;Signal;HPM_P1;HPM_P2
2024/01/31 00:01:50;;;;;;;;;;;19.30;61.90;;;;;;7321735;19;9100;-65
2024/01/31 00:04:21;;;;;;;;;;;19.20;61.90;;;;;;7319177;19;10196;-65
2024/01/31 00:06:52;;;;;;;;;;;19.20;61.90;;;;;;7318776;19;9126;-65
2024/01/31 00:09:21;;;;;;;;;;;19.10;62.00;;;;;;7318456;19;9422;-66
2024/01/31 00:11:50;;;;;;;;;;;19.10;62.00;;;;;;7319091;19;9507;-65
2024/01/31 00:14:19;;;;;;;;;;;19.10;62.00;;;;;;7320647;19;9248;-65
2024/01/31 00:16:48;;;;;;;;;;;19.00;62.10;;;;;;7319803;19;9387;-65
2024/01/31 00:19:17;;;;;;;;;;;19.00;62.00;;;;;;7322351;19;9023;-65
2024/01/31 00:21:48;;;;;;;;;;;19.00;62.10;;;;;;7320217;19;9354;-65
2024/01/31 00:24:17;;;;;;;;;;;19.00;62.10;;;;;;7319501;19;8944;-65
2024/01/31 00:26:46;;;;;;;;;;;18.90;62.20;;;;;;7318902;19;9253;-66
2024/01/31 00:29:15;;;;;;;;;;;18.90;62.20;;;;;;7319964;19;9233;-65
2024/01/31 00:31:44;;;;;;;;;;;18.90;62.20;;;;;;7318241;19;11370;-66
2024/01/31 00:34:13;;;;;;;;;;;18.90;62.10;;;;;;7318988;19;9233;-65
2024/01/31 00:36:44;;;;;;;;;;;18.90;62.00;;;;;;7320749;19;9264;-65
2024/01/31 00:39:15;;;;;;;;;;;19.00;62.00;;;;;;7317983;19;9229;-65
2024/01/31 00:41:44;;;;;;;;;;;19.00;62.00;;;;;;7319797;19;9214;-65
2024/01/31 00:44:13;;;;;;;;;;;19.10;61.90;;;;;;7320391;19;9265;-65
2024/01/31 00:46:44;;;;;;;;;;;19.10;61.90;;;;;;7320503;19;9320;-65
2024/01/31 00:49:13;;;;;;;;;;;19.20;61.70;;;;;;7319967;19;9487;-65
2024/01/31 00:51:46;;;;;;;;;;;19.20;61.60;;;;;;7317911;19;9362;-65
2024/01/31 00:54:17;;;;;;;;;;;19.30;61.50;;;;;;7318660;19;9213;-65
2024/01/31 00:56:46;;;;;;;;;;;19.40;61.50;;;;;;7319980;19;9962;-66
2024/01/31 00:59:18;;;;;;;;;;;19.40;61.40;;;;;;7315816;19;9306;-66
2024/01/31 01:01:47;;;;;;;;;;;19.50;61.30;;;;;;7320471;19;9165;-66
2024/01/31 01:04:17;;;;;;;;;;;19.50;61.30;;;;;;7320089;19;9225;-65
2024/01/31 01:06:46;;;;;;;;;;;19.60;61.20;;;;;;7319016;19;9284;-65
2024/01/31 01:09:19;;;;;;;;;;;19.60;61.10;;;;;;7316539;19;9248;-65
2024/01/31 01:11:48;;;;;;;;;;;19.70;61.10;;;;;;7316807;19;10360;-66
2024/01/31 01:14:19;;;;;;;;;;;19.70;61.00;;;;;;7292741;19;9027;-66
2024/01/31 01:16:48;;;;;;;;;;;19.70;60.90;;;;;;7316092;19;9293;-65
2024/01/31 01:19:18;;;;;;;;;;;19.70;60.90;;;;;;7316623;19;9594;-66
2024/01/31 01:21:48;;;;;;;;;;;19.70;60.80;;;;;;7313203;19;9170;-65
2024/01/31 01:24:20;;;;;;;;;;;19.80;60.90;;;;;;7315975;19;9436;-66
2024/01/31 01:26:50;;;;;;;;;;;19.70;60.80;;;;;;7314857;19;8948;-65
2024/01/31 01:29:19;;;;;;;;;;;19.70;60.80;;;;;;7314701;19;9872;-65
2024/01/31 01:31:49;;;;;;;;;;;19.70;60.70;;;;;;7317091;19;9281;-65
2024/01/31 01:34:19;;;;;;;;;;;19.70;60.70;;;;;;7315497;19;11294;-65
2024/01/31 01:36:50;;;;;;;;;;;19.70;60.70;;;;;;7311068;19;9201;-65
2024/01/31 01:39:22;;;;;;;;;;;19.60;60.70;;;;;;7311554;19;9253;-66
2024/01/31 01:41:53;;;;;;;;;;;19.60;60.80;;;;;;7318247;19;9202;-65
2024/01/31 01:44:22;;;;;;;;;;;19.60;60.80;;;;;;7316260;19;9565;-65
2024/01/31 01:46:54;;;;;;;;;;;19.50;60.80;;;;;;7314034;19;9628;-65
2024/01/31 01:49:24;;;;;;;;;;;19.50;60.90;;;;;;7316119;19;9262;-65
2024/01/31 01:51:56;;;;;;;;;;;19.40;60.90;;;;;;7314710;19;9243;-65
2024/01/31 01:54:29;;;;;;;;;;;19.40;60.90;;;;;;7314114;19;9346;-65
2024/01/31 01:57:00;;;;;;;;;;;19.40;61.00;;;;;;7313273;19;9259;-65
2024/01/31 01:59:30;;;;;;;;;;;19.40;61.10;;;;;;7313155;19;9182;-66
2024/01/31 02:02:01;;;;;;;;;;;19.30;61.10;;;;;;7316943;19;9237;-66
2024/01/31 02:04:31;;;;;;;;;;;19.30;61.10;;;;;;7316176;19;9714;-66
2024/01/31 02:07:02;;;;;;;;;;;19.20;61.10;;;;;;7316149;19;9416;-65
2024/01/31 02:09:35;;;;;;;;;;;19.20;61.20;;;;;;7316969;19;9186;-65
2024/01/31 02:12:05;;;;;;;;;;;19.20;61.30;;;;;;7313252;19;9507;-65
2024/01/31 02:14:35;;;;;;;;;;;19.10;61.30;;;;;;7313665;19;9169;-65
2024/01/31 02:17:05;;;;;;;;;;;19.10;61.30;;;;;;7315825;19;9232;-65
2024/01/31 02:19:35;;;;;;;;;;;19.10;61.40;;;;;;7316757;19;9157;-65
2024/01/31 02:22:08;;;;;;;;;;;19.00;61.40;;;;;;7311305;19;9470;-65
2024/01/31 02:24:41;;;;;;;;;;;19.00;61.40;;;;;;7314965;19;9249;-65
2024/01/31 02:27:10;;;;;;;;;;;19.00;61.50;;;;;;7314787;19;9995;-66
2024/01/31 02:29:41;;;;;;;;;;;19.00;61.50;;;;;;7313879;19;10031;-66
2024/01/31 02:32:10;;;;;;;;;;;18.90;61.50;;;;;;7316240;19;9566;-65
2024/01/31 02:34:40;;;;;;;;;;;18.90;61.50;;;;;;7314804;19;9241;-65
2024/01/31 02:37:10;;;;;;;;;;;18.90;61.50;;;;;;7312310;19;8948;-65
2024/01/31 02:39:42;;;;;;;;;;;18.90;61.40;;;;;;7314802;19;9208;-65
2024/01/31 02:42:14;;;;;;;;;;;19.00;61.40;;;;;;7310638;19;9687;-66
2024/01/31 02:44:44;;;;;;;;;;;19.00;61.40;;;;;;7312917;19;10420;-65
2024/01/31 02:47:13;;;;;;;;;;;19.00;61.30;;;;;;7314354;19;9273;-65
2024/01/31 02:50:03;;;;;;;;;;;19.10;61.30;;;;;;7320769;19;9256;-65
2024/01/31 02:52:33;;;;;;;;;;;19.10;61.20;;;;;;7322599;19;9588;-65
2024/01/31 02:55:04;;;;;;;;;;;19.20;61.20;;;;;;7320458;19;9028;-65
2024/01/31 02:57:34;;;;;;;;;;;19.30;61.10;;;;;;7319351;19;9437;-65
2024/01/31 03:00:04;;;;;;;;;;;19.30;61.00;;;;;;7323101;19;9215;-65
2024/01/31 03:02:33;;;;;;;;;;;19.40;61.00;;;;;;7319455;19;9417;-66
2024/01/31 03:05:01;;;;;;;;;;;19.40;60.80;;;;;;7321616;19;9308;-66
2024/01/31 03:07:30;;;;;;;;;;;19.50;60.80;;;;;;7315398;19;9996;-65
2024/01/31 03:09:59;;;;;;;;;;;19.60;60.80;;;;;;7319019;19;9208;-65
2024/01/31 03:12:31;;;;;;;;;;;19.60;60.70;;;;;;7316145;19;9420;-65
2024/01/31 03:15:00;;;;;;;;;;;19.60;60.60;;;;;;7320619;19;9237;-66
2024/01/31 03:17:34;;;;;;;;;;;19.70;60.60;;;;;;7318524;19;9011;-66
2024/01/31 03:20:05;;;;;;;;;;;19.70;60.60;;;;;;7318436;19;9202;-66
2024/01/31 03:22:34;;;;;;;;;;;19.70;60.50;;;;;;7319185;19;9267;-66
2024/01/31 03:25:03;;;;;;;;;;;19.80;60.50;;;;;;7321166;19;9164;-65
2024/01/31 03:27:34;;;;;;;;;;;19.70;60.40;;;;;;7319255;19;9506;-65
2024/01/31 03:30:05;;;;;;;;;;;19.70;60.40;;;;;;7320913;19;9541;-65
2024/01/31 03:32:34;;;;;;;;;;;19.70;60.30;;;;;;7317984;19;9244;-66
2024/01/31 03:35:03;;;;;;;;;;;19.70;60.40;;;;;;7319416;19;9232;-65
2024/01/31 03:37:32;;;;;;;;;;;19.70;60.30;;;;;;7322616;19;11108;-65
2024/01/31 03:40:01;;;;;;;;;;;19.70;60.30;;;;;;7321192;19;9600;-65
2024/01/31 03:42:29;;;;;;;;;;;19.60;60.30;;;;;;7316194;19;9261;-65
2024/01/31 03:45:03;;;;;;;;;;;19.60;60.30;;;;;;7318684;19;10003;-65
2024/01/31 03:47:34;;;;;;;;;;;19.60;60.40;;;;;;7319925;19;9051;-65
2024/01/31 03:50:05;;;;;;;;;;;19.50;60.40;;;;;;7318227;19;9510;-65
2024/01/31 03:52:36;;;;;;;;;;;19.50;60.40;;;;;;7318181;19;9373;-65
2024/01/31 03:55:06;;;;;;;;;;;19.50;60.50;;;;;;7320193;19;9241;-65
2024/01/31 03:57:36;;;;;;;;;;;19.40;60.50;;;;;;7320254;19;9980;-65
2024/01/31 04:00:11;;;;;;;;;;;19.40;60.60;;;;;;7316815;19;9258;-65
2024/01/31 04:02:40;;;;;;;;;;;19.40;60.60;;;;;;7319600;19;8952;-65
2024/01/31 04:05:13;;;;;;;;;;;19.30;60.70;;;;;;7320076;19;9222;-65
2024/01/31 04:07:45;;;;;;;;;;;19.30;60.70;;;;;;7320363;19;9385;-65
2024/01/31 04:10:14;;;;;;;;;;;19.20;60.80;;;;;;7317630;19;10160;-66
2024/01/31 04:12:45;;;;;;;;;;;19.20;60.80;;;;;;7318317;19;9233;-65
2024/01/31 04:15:17;;;;;;;;;;;19.10;60.80;;;;;;7319089;19;9297;-65
2024/01/31 04:17:47;;;;;;;;;;;19.10;60.90;;;;;;7320993;19;9632;-65
2024/01/31 04:20:17;;;;;;;;;;;19.10;61.00;;;;;;7313342;19;9433;-65
2024/01/31 04:22:47;;;;;;;;;;;19.00;60.90;;;;;;7320601;19;9229;-65
2024/01/31 04:25:17;;;;;;;;;;;19.00;61.00;;;;;;7318863;19;9574;-65
2024/01/31 04:27:47;;;;;;;;;;;19.00;61.00;;;;;;7320621;19;9230;-65
2024/01/31 04:30:20;;;;;;;;;;;19.00;61.10;;;;;;7318098;19;9265;-66
2024/01/31 04:32:50;;;;;;;;;;;18.90;61.00;;;;;;7316112;19;9486;-65
2024/01/31 04:35:20;;;;;;;;;;;18.90;61.10;;;;;;7318813;19;9971;-65
2024/01/31 04:37:50;;;;;;;;;;;18.90;61.10;;;;;;7316254;19;9505;-65
2024/01/31 04:40:20;;;;;;;;;;;18.90;61.10;;;;;;7319646;19;9217;-65
2024/01/31 04:42:50;;;;;;;;;;;18.90;61.10;;;;;;7314576;19;8948;-65
2024/01/31 04:45:22;;;;;;;;;;;18.90;61.10;;;;;;7316004;19;9116;-65
2024/01/31 04:47:52;;;;;;;;;;;18.90;61.00;;;;;;7315436;19;9288;-65
2024/01/31 04:50:21;;;;;;;;;;;18.90;60.90;;;;;;7316723;19;9154;-65
2024/01/31 04:52:51;;;;;;;;;;;19.00;60.90;;;;;;7315693;19;9233;-65
2024/01/31 04:55:21;;;;;;;;;;;19.10;60.90;;;;;;7318405;19;10106;-65
2024/01/31 04:57:51;;;;;;;;;;;19.10;60.90;;;;;;7316971;19;9246;-65
2024/01/31 05:00:23;;;;;;;;;;;19.20;60.70;;;;;;7317072;19;9839;-65
2024/01/31 05:02:53;;;;;;;;;;;19.20;60.70;;;;;;7317282;19;9293;-66
2024/01/31 05:05:23;;;;;;;;;;;19.30;60.60;;;;;;7317960;19;9190;-65
2024/01/31 05:07:53;;;;;;;;;;;19.40;60.50;;;;;;7314271;19;9742;-66
2024/01/31 05:10:23;;;;;;;;;;;19.40;60.50;;;;;;7315568;19;9453;-65
2024/01/31 05:12:53;;;;;;;;;;;19.50;60.40;;;;;;7316653;19;9173;-65
2024/01/31 05:15:25;;;;;;;;;;;19.50;60.30;;;;;;7315150;19;9229;-65
2024/01/31 05:17:55;;;;;;;;;;;19.50;60.30;;;;;;7318168;19;9231;-65
2024/01/31 05:20:25;;;;;;;;;;;19.60;60.20;;;;;;7318670;19;8948;-65
2024/01/31 05:22:54;;;;;;;;;;;19.60;60.10;;;;;;7317744;19;9209;-65
2024/01/31 05:25:24;;;;;;;;;;;19.60;60.10;;;;;;7318201;19;9135;-65
2024/01/31 05:27:54;;;;;;;;;;;19.60;60.10;;;;;;7309984;19;9229;-66
2024/01/31 05:30:27;;;;;;;;;;;19.60;60.00;;;;;;7316728;19;9220;-65
2024/01/31 05:32:56;;;;;;;;;;;19.60;60.00;;;;;;7315378;19;9412;-65
2024/01/31 05:35:26;;;;;;;;;;;19.60;60.00;;;;;;7315311;19;9264;-65
2024/01/31 05:37:56;;;;;;;;;;;19.60;60.00;;;;;;7314780;19;9253;-65
2024/01/31 05:40:26;;;;;;;;;;;19.60;60.00;;;;;;7317110;19;9508;-66
2024/01/31 05:42:56;;;;;;;;;;;19.60;60.00;;;;;;7313375;19;9189;-65
2024/01/31 05:45:28;;;;;;;;;;;19.50;60.00;;;;;;7315971;19;9408;-66
2024/01/31 05:47:58;;;;;;;;;;;19.50;60.00;;;;;;7317527;19;9267;-65
2024/01/31 05:50:28;;;;;;;;;;;19.50;60.00;;;;;;7313930;19;10186;-65
2024/01/31 05:52:57;;;;;;;;;;;19.40;60.00;;;;;;7315012;19;9749;-65
2024/01/31 05:55:27;;;;;;;;;;;19.40;60.10;;;;;;7315999;19;10135;-65
2024/01/31 05:57:57;;;;;;;;;;;19.40;60.20;;;;;;7317857;19;9028;-65
2024/01/31 06:00:29;;;;;;;;;;;19.30;60.20;;;;;;7313587;19;9194;-65
2024/01/31 06:02:59;;;;;;;;;;;19.30;60.20;;;;;;7313156;19;9213;-65
2024/01/31 06:05:29;;;;;;;;;;;19.20;60.30;;;;;;7315640;19;9213;-65
2024/01/31 06:07:58;;;;;;;;;;;19.20;61.00;;;;;;7314614;19;11732;-66
2024/01/31 06:10:28;;;;;;;;;;;19.10;60.40;;;;;;7312708;19;9174;-65
2024/01/31 06:12:58;;;;;;;;;;;19.10;60.40;;;;;;7313687;19;9230;-65
2024/01/31 06:15:30;;;;;;;;;;;19.10;60.50;;;;;;7313755;19;9283;-65
2024/01/31 06:18:00;;;;;;;;;;;19.10;60.50;;;;;;7315641;19;9019;-65
2024/01/31 06:20:30;;;;;;;;;;;19.00;60.60;;;;;;7310886;19;9451;-65
2024/01/31 06:22:59;;;;;;;;;;;19.00;60.60;;;;;;7316104;19;9268;-65
2024/01/31 06:25:29;;;;;;;;;;;19.00;60.70;;;;;;7323974;19;9488;-65
2024/01/31 06:27:59;;;;;;;;;;;18.90;60.70;;;;;;7321001;19;9424;-65
2024/01/31 06:30:40;;;;;;;;;;;18.90;60.70;;;;;;7322355;19;9174;-65
2024/01/31 06:33:10;;;;;;;;;;;18.90;60.80;;;;;;7318976;19;9766;-67
2024/01/31 06:35:43;;;;;;;;;;;18.90;60.80;;;;;;7320281;19;9450;-67
2024/01/31 06:38:13;;;;;;;;;;;18.90;60.70;;;;;;7319519;19;9263;-65
2024/01/31 06:40:42;;;;;;;;;;;18.90;60.70;;;;;;7322812;19;9193;-65
2024/01/31 06:43:12;;;;;;;;;;;19.00;60.60;;;;;;7322255;19;9546;-65
2024/01/31 06:45:47;;;;;;;;;;;19.00;60.60;;;;;;7319604;19;9967;-65
2024/01/31 06:48:17;;;;;;;;;;;19.10;60.60;;;;;;7323291;19;9189;-65
2024/01/31 06:50:46;;;;;;;;;;;19.10;60.50;;;;;;7321780;19;9023;-65
2024/01/31 06:53:17;;;;;;;;;;;19.20;60.50;;;;;;7318115;19;9995;-65
2024/01/31 06:55:47;;;;;;;;;;;19.20;60.50;;;;;;7321462;19;9246;-65
2024/01/31 06:58:17;;;;;;;;;;;19.30;60.50;;;;;;7320875;19;9197;-65
2024/01/31 07:00:53;;;;;;;;;;;19.30;60.30;;;;;;7319659;19;10293;-65
2024/01/31 07:03:23;;;;;;;;;;;19.40;60.30;;;;;;7313010;19;9235;-65
2024/01/31 07:05:52;;;;;;;;;;;19.50;60.30;;;;;;7318496;19;9329;-65
2024/01/31 07:08:21;;;;;;;;;;;19.50;60.20;;;;;;7318041;19;9383;-77
2024/01/31 07:10:50;;;;;;;;;;;19.60;60.20;;;;;;7320713;19;9342;-76
2024/01/31 07:13:19;;;;;;;;;;;19.60;60.30;;;;;;7317338;19;9198;-77
2024/01/31 07:15:50;;;;;;;;;;;19.60;60.20;;;;;;7319227;19;9256;-79
2024/01/31 07:18:19;;;;;;;;;;;19.70;60.90;;;;;;7317974;19;9221;-65
2024/01/31 07:20:48;;;;;;;;;;;19.70;60.30;;;;;;7320241;19;9561;-64
2024/01/31 07:23:17;;;;;;;;;;;19.70;60.30;;;;;;7308936;19;9213;-66
2024/01/31 07:25:46;;;;;;;;;;;19.70;60.40;;;;;;7315511;19;9023;-66
2024/01/31 07:28:15;;;;;;;;;;;19.70;60.30;;;;;;7320398;19;10790;-66
2024/01/31 07:30:44;;;;;;;;;;;19.70;60.30;;;;;;7321869;19;9441;-66
2024/01/31 07:33:16;;;;;;;;;;;19.70;60.20;;;;;;7321610;19;9484;-66
2024/01/31 07:35:45;;;;;;;;;;;19.70;60.30;;;;;;7314997;19;9680;-66
2024/01/31 07:38:14;;;;;;;;;;;19.60;60.20;;;;;;7318713;19;9236;-66
2024/01/31 07:40:43;;;;;;;;;;;19.60;60.20;;;;;;7318375;19;9174;-66
2024/01/31 07:43:12;;;;;;;;;;;19.50;60.20;;;;;;7318973;19;9256;-66
2024/01/31 07:45:43;;;;;;;;;;;19.60;60.30;;;;;;7320348;19;9428;-66
2024/01/31 07:48:12;;;;;;;;;;;19.50;60.30;;;;;;7320965;19;9635;-66
2024/01/31 07:50:44;;;;;;;;;;;19.40;60.30;;;;;;7320150;19;9166;-66
2024/01/31 07:53:13;;;;;;;;;;;19.40;60.30;;;;;;7319861;19;10288;-66
2024/01/31 07:55:42;;;;;;;;;;;19.30;60.30;;;;;;7318542;19;9158;-66
2024/01/31 07:58:11;;;;;;;;;;;19.30;60.40;;;;;;7319772;19;9182;-66
2024/01/31 08:00:40;;;;;;;;;;;19.30;60.50;;;;;;7320660;19;9259;-68
2024/01/31 08:03:09;;;;;;;;;;;19.20;60.50;;;;;;7321293;19;8948;-67
2024/01/31 08:05:39;;;;;;;;;;;19.20;60.50;;;;;;7319014;19;9115;-65
2024/01/31 08:08:12;;;;;;;;;;;19.20;60.70;;;;;;7321441;19;9274;-65
2024/01/31 08:10:41;;;;;;;;;;;19.10;60.60;;;;;;7319175;19;9353;-68
2024/01/31 08:13:12;;;;;;;;;;;19.10;60.70;;;;;;7321351;19;9310;-66
2024/01/31 08:15:41;;;;;;;;;;;19.10;60.70;;;;;;7320022;19;9274;-67
2024/01/31 08:18:11;;;;;;;;;;;19.00;60.70;;;;;;7317114;19;9478;-67
2024/01/31 08:20:41;;;;;;;;;;;19.00;60.70;;;;;;7320618;19;9193;-67
2024/01/31 08:23:13;;;;;;;;;;;18.90;60.70;;;;;;7318817;19;10071;-67
2024/01/31 08:25:43;;;;;;;;;;;19.00;60.80;;;;;;7317746;19;9304;-67
2024/01/31 08:28:13;;;;;;;;;;;19.00;60.80;;;;;;7318426;19;9169;-67
2024/01/31 08:30:42;;;;;;;;;;;18.90;60.80;;;;;;7318523;19;9182;-66
2024/01/31 08:33:12;;;;;;;;;;;18.90;60.70;;;;;;7318125;19;9237;-67
2024/01/31 08:35:43;;;;;;;;;;;18.90;60.80;;;;;;7319847;19;9257;-67
2024/01/31 08:38:15;;;;;;;;;;;18.90;60.70;;;;;;7317552;19;9248;-66
2024/01/31 08:40:45;;;;;;;;;;;18.90;60.70;;;;;;7318712;19;10299;-66
2024/01/31 08:43:15;;;;;;;;;;;19.00;60.70;;;;;;7319521;19;9253;-66
2024/01/31 08:45:45;;;;;;;;;;;19.00;60.50;;;;;;7315655;19;10653;-67
2024/01/31 08:48:14;;;;;;;;;;;19.10;60.60;;;;;;7320983;19;9216;-68
2024/01/31 08:50:44;;;;;;;;;;;19.10;60.50;;;;;;7318764;19;9264;-66
2024/01/31 08:53:17;;;;;;;;;;;19.20;60.40;;;;;;7318207;19;9379;-66
2024/01/31 08:55:46;;;;;;;;;;;19.30;60.40;;;;;;7318549;19;9182;-66
2024/01/31 08:58:16;;;;;;;;;;;19.30;60.20;;;;;;7318307;19;9442;-66
2024/01/31 09:00:46;;;;;;;;;;;19.40;60.30;;;;;;7317764;19;9566;-66
2024/01/31 09:03:16;;;;;;;;;;;19.40;60.10;;;;;;7318574;19;9234;-66
2024/01/31 09:05:46;;;;;;;;;;;19.50;60.10;;;;;;7316967;19;9270;-66
2024/01/31 09:08:18;;;;;;;;;;;19.50;60.00;;;;;;7318590;19;9217;-67
2024/01/31 09:10:48;;;;;;;;;;;19.60;60.00;;;;;;7317717;19;9297;-66
2024/01/31 09:13:18;;;;;;;;;;;19.60;60.00;;;;;;7317651;19;9570;-66
2024/01/31 09:15:47;;;;;;;;;;;19.70;59.90;;;;;;7318798;19;9183;-66
2024/01/31 09:18:17;;;;;;;;;;;19.70;59.80;;;;;;7315898;19;9544;-68
2024/01/31 09:20:47;;;;;;;;;;;19.70;59.80;;;;;;7315839;19;9208;-68
2024/01/31 09:23:19;;;;;;;;;;;19.70;59.70;;;;;;7317086;19;9176;-68
2024/01/31 09:25:49;;;;;;;;;;;19.70;59.70;;;;;;7318058;19;9241;-68
2024/01/31 09:28:19;;;;;;;;;;;19.70;59.70;;;;;;7316952;19;9184;-68
2024/01/31 09:30:48;;;;;;;;;;;19.70;59.60;;;;;;7317982;19;9243;-68
2024/01/31 09:33:18;;;;;;;;;;;19.70;59.50;;;;;;7319245;19;9209;-68
2024/01/31 09:35:48;;;;;;;;;;;19.70;59.50;;;;;;7315136;19;9254;-68
2024/01/31 09:38:21;;;;;;;;;;;19.70;59.60;;;;;;7314747;19;9229;-68
2024/01/31 09:40:51;;;;;;;;;;;19.60;59.40;;;;;;7317368;19;9195;-66
2024/01/31 09:43:21;;;;;;;;;;;19.60;59.50;;;;;;7318965;19;9258;-66
2024/01/31 09:45:53;;;;;;;;;;;19.60;59.50;;;;;;7316949;19;11785;-66
2024/01/31 09:48:23;;;;;;;;;;;19.60;60.20;;;;;;7315682;19;9262;-66
2024/01/31 09:50:53;;;;;;;;;;;19.50;59.50;;;;;;7314862;19;9256;-66
2024/01/31 09:53:25;;;;;;;;;;;19.60;59.70;;;;;;7315797;19;9290;-66
2024/01/31 09:55:56;;;;;;;;;;;19.50;59.60;;;;;;7316074;19;9101;-66
2024/01/31 09:58:26;;;;;;;;;;;19.50;59.70;;;;;;7324354;19;9281;-66
2024/01/31 10:00:57;;;;;;;;;;;19.40;59.70;;;;;;7322474;19;9246;-66
2024/01/31 10:03:26;;;;;;;;;;;19.40;59.70;;;;;;7323349;19;9478;-66
2024/01/31 10:05:56;;;;;;;;;;;19.40;59.80;;;;;;7323057;19;9530;-66
2024/01/31 10:08:30;;;;;;;;;;;19.30;59.80;;;;;;7323427;19;9027;-67
2024/01/31 10:11:00;;;;;;;;;;;19.40;59.90;;;;;;7321662;19;9441;-67
2024/01/31 10:13:30;;;;;;;;;;;19.30;59.90;;;;;;7324633;19;9379;-66
2024/01/31 10:16:00;;;;;;;;;;;19.30;60.20;;;;;;7322329;19;9185;-66
2024/01/31 10:18:31;;;;;;;;;;;19.30;59.90;;;;;;7323595;19;10543;-66
2024/01/31 10:21:01;;;;;;;;;;;19.20;60.00;;;;;;7324985;19;9300;-66
2024/01/31 10:23:34;;;;;;;;;;;19.20;60.00;;;;;;7320230;19;9601;-66
2024/01/31 10:26:03;;;;;;;;;;;19.20;60.00;;;;;;7323835;19;9529;-66
2024/01/31 10:28:34;;;;;;;;;;;19.10;60.00;;;;;;7323119;19;9199;-66
2024/01/31 10:31:05;;;;;;;;;;;19.10;60.00;;;;;;7323299;19;9250;-66
2024/01/31 10:33:37;;;;;;;;;;;19.10;60.00;;;;;;7324387;19;9365;-66
2024/01/31 10:36:08;;;;;;;;;;;19.10;60.00;;;;;;7322420;19;9425;-66
2024/01/31 10:38:42;;;;;;;;;;;19.10;60.10;;;;;;7324196;19;9959;-68
2024/01/31 10:41:15;;;;;;;;;;;19.00;60.00;;;;;;7321660;19;9485;-66
2024/01/31 10:43:47;;;;;;;;;;;19.00;60.40;;;;;;7321973;19;9041;-65
2024/01/31 10:46:16;;;;;;;;;;;19.00;60.20;;;;;;7322305;19;9248;-65
2024/01/31 10:48:46;;;;;;;;;;;19.00;60.30;;;;;;7322278;19;9245;-66
2024/01/31 10:51:18;;;;;;;;;;;19.00;60.30;;;;;;7320602;19;9964;-65
2024/01/31 10:53:55;;;;;;;;;;;19.00;60.10;;;;;;7320486;19;9349;-66
2024/01/31 10:56:26;;;;;;;;;;;19.00;60.10;;;;;;7321027;19;9027;-66
2024/01/31 10:58:59;;;;;;;;;;;19.00;60.40;;;;;;7322651;19;9088;-66
2024/01/31 11:01:32;;;;;;;;;;;19.00;60.00;;;;;;7311275;19;9103;-74
2024/01/31 11:04:04;;;;;;;;;;;19.10;60.00;;;;;;7320541;19;9203;-75
2024/01/31 11:06:42;;;;;;;;;;;19.10;60.10;;;;;;7317328;19;9237;-66
2024/01/31 11:09:24;;;;;;;;;;;19.10;60.10;;;;;;7317265;19;9480;-77
2024/01/31 11:12:04;;;;;;;;;;;19.20;59.90;;;;;;7319898;19;9361;-76
2024/01/31 11:14:35;;;;;;;;;;;19.30;59.90;;;;;;7321568;19;9431;-76
2024/01/31 11:17:09;;;;;;;;;;;19.30;59.90;;;;;;7318942;19;9265;-75
2024/01/31 11:19:46;;;;;;;;;;;19.40;59.80;;;;;;7322066;19;8952;-75
2024/01/31 11:22:16;;;;;;;;;;;19.40;59.80;;;;;;7319622;19;9577;-76
2024/01/31 11:24:50;;;;;;;;;;;19.50;59.80;;;;;;7321126;19;9576;-76
2024/01/31 11:27:21;;;;;;;;;;;19.50;59.70;;;;;;7317979;19;9256;-75
2024/01/31 11:29:54;;;;;;;;;;;19.60;59.60;;;;;;7321438;19;9257;-77
2024/01/31 11:32:25;;;;;;;;;;;19.60;59.50;;;;;;7320054;19;9182;-73
2024/01/31 11:35:04;;;;;;;;;;;19.70;59.50;;;;;;7320860;19;9194;-73
2024/01/31 11:37:34;;;;;;;;;;;19.70;59.60;;;;;;7318704;19;9655;-76
2024/01/31 11:40:08;;;;;;;;;;;19.70;59.40;;;;;;7321107;19;9041;-73
2024/01/31 11:42:38;;;;;;;;;;;19.70;59.50;;;;;;7311017;19;9266;-66
2024/01/31 11:45:09;;;;;;;;;;;19.70;59.40;;;;;;7318004;19;9342;-66
2024/01/31 11:47:40;;;;;;;;;;;19.70;59.30;;;;;;7320761;19;9442;-66
2024/01/31 11:50:11;;;;;;;;;;;19.70;59.40;;;;;;7320863;19;10051;-66
2024/01/31 11:52:41;;;;;;;;;;;19.70;59.50;;;;;;7319483;19;9241;-67
2024/01/31 11:55:15;;;;;;;;;;;19.70;59.40;;;;;;7316028;19;9242;-66
2024/01/31 11:57:45;;;;;;;;;;;19.60;59.40;;;;;;7316964;19;10626;-78
2024/01/31 12:00:16;;;;;;;;;;;19.60;59.40;;;;;;7320240;19;9253;-76
2024/01/31 12:02:47;;;;;;;;;;;19.60;59.60;;;;;;7318538;19;9251;-78
2024/01/31 12:05:17;;;;;;;;;;;19.60;59.70;;;;;;7319695;19;9184;-77
2024/01/31 12:07:57;;;;;;;;;;;19.50;59.50;;;;;;7319023;19;9005;-77
2024/01/31 12:10:31;;;;;;;;;;;19.50;59.60;;;;;;7317516;19;9935;-74
2024/01/31 12:13:02;;;;;;;;;;;19.50;59.60;;;;;;7317626;19;9435;-73
2024/01/31 12:15:33;;;;;;;;;;;19.50;59.70;;;;;;7320846;19;9498;-73
2024/01/31 12:18:04;;;;;;;;;;;19.40;59.70;;;;;;7318331;19;9225;-74
2024/01/31 12:20:34;;;;;;;;;;;19.40;59.70;;;;;;7317935;19;9518;-74
2024/01/31 12:23:04;;;;;;;;;;;19.40;59.80;;;;;;7317653;19;9253;-74
2024/01/31 12:25:36;;;;;;;;;;;19.30;59.70;;;;;;7320996;19;9277;-74
2024/01/31 12:28:06;;;;;;;;;;;19.30;59.80;;;;;;7312388;19;9229;-67
2024/01/31 12:30:36;;;;;;;;;;;19.40;59.90;;;;;;7315368;19;9505;-67
2024/01/31 12:33:06;;;;;;;;;;;19.30;59.90;;;;;;7316548;19;9253;-68
2024/01/31 12:35:36;;;;;;;;;;;19.30;59.80;;;;;;7319446;19;9313;-67
2024/01/31 12:38:06;;;;;;;;;;;19.30;59.90;;;;;;7317267;19;9198;-68
2024/01/31 12:40:38;;;;;;;;;;;19.20;59.80;;;;;;7316686;19;9219;-67
2024/01/31 12:43:08;;;;;;;;;;;19.20;59.90;;;;;;7319052;19;8948;-67
2024/01/31 12:45:38;;;;;;;;;;;19.10;59.80;;;;;;7319360;19;9335;-67
2024/01/31 12:48:09;;;;;;;;;;;19.10;59.80;;;;;;7320646;19;9967;-67
2024/01/31 12:50:39;;;;;;;;;;;19.10;60.00;;;;;;7311226;19;9213;-67
2024/01/31 12:53:09;;;;;;;;;;;19.10;60.00;;;;;;7315164;19;8948;-68
2024/01/31 12:55:41;;;;;;;;;;;19.00;59.80;;;;;;7317965;19;9449;-68
2024/01/31 12:58:11;;;;;;;;;;;19.00;59.90;;;;;;7319614;19;9417;-67
2024/01/31 13:00:41;;;;;;;;;;;19.00;60.00;;;;;;7318336;19;9657;-67
2024/01/31 13:03:11;;;;;;;;;;;19.00;60.00;;;;;;7316368;19;9295;-67
2024/01/31 13:05:41;;;;;;;;;;;19.00;60.00;;;;;;7317459;19;9459;-67
2024/01/31 13:08:10;;;;;;;;;;;18.90;59.80;;;;;;7315100;19;9383;-67
2024/01/31 13:10:43;;;;;;;;;;;18.90;59.80;;;;;;7318527;19;8952;-67
2024/01/31 13:13:13;;;;;;;;;;;18.90;59.80;;;;;;7319702;19;9261;-68
2024/01/31 13:15:42;;;;;;;;;;;19.00;59.90;;;;;;7316697;19;10384;-67
2024/01/31 13:18:12;;;;;;;;;;;19.00;59.80;;;;;;7316500;19;9482;-67
2024/01/31 13:20:42;;;;;;;;;;;19.00;59.80;;;;;;7320351;19;9193;-67
2024/01/31 13:23:12;;;;;;;;;;;19.00;59.70;;;;;;7316379;19;9221;-68
2024/01/31 13:25:45;;;;;;;;;;;19.10;59.70;;;;;;7316396;19;9028;-68
2024/01/31 13:28:16;;;;;;;;;;;19.10;59.70;;;;;;7317836;19;10026;-67
2024/01/31 13:30:46;;;;;;;;;;;19.20;59.60;;;;;;7311481;19;9205;-67
2024/01/31 13:33:16;;;;;;;;;;;19.30;59.60;;;;;;7313596;19;9103;-67
2024/01/31 13:35:45;;;;;;;;;;;19.30;59.40;;;;;;7310228;19;10467;-67
2024/01/31 13:38:15;;;;;;;;;;;19.40;59.40;;;;;;7315358;19;9497;-67
2024/01/31 13:40:48;;;;;;;;;;;19.40;59.30;;;;;;7312419;19;9367;-67
2024/01/31 13:43:18;;;;;;;;;;;19.50;59.20;;;;;;7314320;19;9244;-67
2024/01/31 13:45:47;;;;;;;;;;;19.50;59.20;;;;;;7316245;19;8948;-67
2024/01/31 13:48:17;;;;;;;;;;;19.60;59.10;;;;;;7316795;19;9454;-67
2024/01/31 13:50:47;;;;;;;;;;;19.60;58.90;;;;;;7313453;19;9041;-67
2024/01/31 13:53:16;;;;;;;;;;;19.70;59.00;;;;;;7313141;19;9699;-68
2024/01/31 13:55:49;;;;;;;;;;;19.70;58.90;;;;;;7311670;19;9253;-67
2024/01/31 13:58:18;;;;;;;;;;;19.70;58.90;;;;;;7316963;19;10882;-68
2024/01/31 14:00:48;;;;;;;;;;;19.70;58.80;;;;;;7313888;19;9979;-67
2024/01/31 14:03:18;;;;;;;;;;;19.70;58.60;;;;;;7314773;19;9551;-68
2024/01/31 14:05:48;;;;;;;;;;;19.60;58.60;;;;;;7318707;19;9023;-68
2024/01/31 14:08:17;;;;;;;;;;;19.60;58.40;;;;;;7318107;19;9264;-68
2024/01/31 14:10:50;;;;;;;;;;;19.60;58.40;;;;;;7317773;19;9167;-67
2024/01/31 14:13:19;;;;;;;;;;;19.60;58.40;;;;;;7316864;19;9225;-67
2024/01/31 14:15:49;;;;;;;;;;;19.60;58.40;;;;;;7317055;19;9541;-67
2024/01/31 14:18:19;;;;;;;;;;;19.60;58.40;;;;;;7315590;19;9230;-68
2024/01/31 14:20:49;;;;;;;;;;;19.60;58.50;;;;;;7317120;19;9225;-68
2024/01/31 14:23:19;;;;;;;;;;;19.50;58.30;;;;;;7314604;19;9297;-68
2024/01/31 14:25:53;;;;;;;;;;;19.50;58.40;;;;;;7314969;19;9280;-68
2024/01/31 14:28:22;;;;;;;;;;;19.40;58.30;;;;;;7313153;19;9621;-67
2024/01/31 14:30:52;;;;;;;;;;;19.40;58.40;;;;;;7315427;19;9245;-68
2024/01/31 14:33:22;;;;;;;;;;;19.30;58.40;;;;;;7313486;19;9262;-68
2024/01/31 14:35:53;;;;;;;;;;;19.30;58.50;;;;;;7317394;19;9456;-68
2024/01/31 14:38:24;;;;;;;;;;;19.30;58.60;;;;;;7315487;19;9610;-68
2024/01/31 14:40:56;;;;;;;;;;;19.30;58.60;;;;;;7315495;19;9206;-68
2024/01/31 14:43:27;;;;;;;;;;;19.20;58.60;;;;;;7316309;19;9927;-67
2024/01/31 14:45:57;;;;;;;;;;;19.20;58.80;;;;;;7322530;19;9161;-67
2024/01/31 14:48:26;;;;;;;;;;;19.10;58.70;;;;;;7320116;19;9282;-67